sensor_id;sensor_type;location;lat;lon;timestamp;P1;durP1;ratioP1;P2;durP2;ratioP2
45059;SDS011;30799;49.060;9.312;2023-02-22T08:08:23;4.90;;;1.73;;
45059;SDS011;30799;49.060;9.312;2023-02-22T08:10:50;3.58;;;1.98;;
45059;SDS011;30799;49.060;9.312;2023-02-22T08:13:17;4.32;;;1.92;;
45059;SDS011;30799;49.060;9.312;2023-02-22T08:15:45;3.65;;;1.50;;
45059;SDS011;30799;49.060;9.312;2023-02-22T08:18:13;2.58;;;1.70;;
45059;SDS011;30799;49.060;9.312;2023-02-22T08:20:42;2.92;;;1.55;;
45059;SDS011;30799;49.060;9.312;2023-02-22T08:23:11;2.97;;;1.67;;
45059;SDS011;30799;49.060;9.312;2023-02-22T08:25:39;1.83;;;1.63;;
45059;SDS011;30799;49.060;9.312;2023-02-22T08:28:07;1.73;;;1.50;;
45059;SDS011;30799;49.060;9.312;2023-02-22T08:30:35;3.05;;;1.60;;
45059;SDS011;30799;49.060;9.312;2023-02-22T08:33:05;2.63;;;1.90;;
45059;SDS011;30799;49.060;9.312;2023-02-22T08:35:32;3.50;;;1.80;;
45059;SDS011;30799;49.060;9.312;2023-02-22T08:38:04;2.47;;;1.98;;
45059;SDS011;30799;49.060;9.312;2023-02-22T08:40:32;2.55;;;1.80;;
45059;SDS011;30799;49.060;9.312;2023-02-22T08:43:00;2.28;;;1.85;;
45059;SDS011;30799;49.060;9.312;2023-02-22T08:45:28;2.50;;;1.83;;
45059;SDS011;30799;49.060;9.312;2023-02-22T08:47:56;4.50;;;2.13;;
45059;SDS011;30799;49.060;9.312;2023-02-22T08:50:25;2.78;;;2.03;;
45059;SDS011;30799;49.060;9.312;2023-02-22T08:52:59;3.00;;;2.22;;
45059;SDS011;30799;49.060;9.312;2023-02-22T08:55:28;2.25;;;1.92;;
45059;SDS011;30799;49.060;9.312;2023-02-22T08:57:58;3.60;;;2.40;;
45059;SDS011;30799;49.060;9.312;2023-02-22T09:00:26;2.45;;;1.95;;
45059;SDS011;30799;49.060;9.312;2023-02-22T09:02:54;2.17;;;1.98;;
45059;SDS011;30799;49.060;9.312;2023-02-22T09:05:21;5.00;;;2.17;;
45059;SDS011;30799;49.060;9.312;2023-02-22T09:07:48;5.18;;;2.10;;
45059;SDS011;30799;49.060;9.312;2023-02-22T09:10:19;2.08;;;1.88;;
45059;SDS011;30799;49.060;9.312;2023-02-22T09:12:52;3.42;;;2.03;;
45059;SDS011;30799;49.060;9.312;2023-02-22T09:15:23;2.63;;;2.00;;
45059;SDS011;30799;49.060;9.312;2023-02-22T09:17:50;2.38;;;2.00;;
45059;SDS011;30799;49.060;9.312;2023-02-22T09:20:18;2.60;;;2.38;;
45059;SDS011;30799;49.060;9.312;2023-02-22T09:22:47;1.65;;;1.55;;
45059;SDS011;30799;49.060;9.312;2023-02-22T09:25:14;2.85;;;2.00;;
45059;SDS011;30799;49.060;9.312;2023-02-22T09:27:43;2.92;;;2.03;;
45059;SDS011;30799;49.060;9.312;2023-02-22T09:30:18;2.33;;;1.80;;
45059;SDS011;30799;49.060;9.312;2023-02-22T09:32:49;3.05;;;1.80;;
45059;SDS011;30799;49.060;9.312;2023-02-22T09:35:18;2.08;;;1.88;;
45059;SDS011;30799;49.060;9.312;2023-02-22T09:37:45;2.47;;;2.10;;
45059;SDS011;30799;49.060;9.312;2023-02-22T09:40:15;3.67;;;2.03;;
45059;SDS011;30799;49.060;9.312;2023-02-22T09:43:01;2.05;;;1.73;;
45059;SDS011;30799;49.060;9.312;2023-02-22T09:51:44;2.08;;;1.75;;
45059;SDS011;30799;49.060;9.312;2023-02-22T09:54:33;1.95;;;1.75;;
45059;SDS011;30799;49.060;9.312;2023-02-22T09:57:03;3.10;;;2.20;;
45059;SDS011;30799;49.060;9.312;2023-02-22T09:59:39;2.28;;;1.70;;
45059;SDS011;30799;49.060;9.312;2023-02-22T10:02:15;2.47;;;1.70;;
45059;SDS011;30799;49.060;9.312;2023-02-22T10:05:12;2.60;;;1.77;;
45059;SDS011;30799;49.060;9.312;2023-02-22T10:07:47;2.00;;;1.80;;
45059;SDS011;30799;49.060;9.312;2023-02-22T10:10:20;3.35;;;2.05;;
45059;SDS011;30799;49.060;9.312;2023-02-22T10:21:43;1.75;;;1.65;;
45059;SDS011;30799;49.060;9.312;2023-02-22T10:24:43;2.63;;;2.00;;
45059;SDS011;30799;49.060;9.312;2023-02-22T10:27:19;2.50;;;1.90;;
45059;SDS011;30799;49.060;9.312;2023-02-22T10:29:55;2.15;;;1.58;;
45059;SDS011;30799;49.060;9.312;2023-02-22T10:32:44;2.83;;;1.52;;
45059;SDS011;30799;49.060;9.312;2023-02-22T10:35:17;2.38;;;2.10;;
45059;SDS011;30799;49.060;9.312;2023-02-22T10:37:52;2.88;;;1.98;;
45059;SDS011;30799;49.060;9.312;2023-02-22T10:40:22;3.30;;;1.80;;
45059;SDS011;30799;49.060;9.312;2023-02-22T10:43:07;2.28;;;1.70;;
45059;SDS011;30799;49.060;9.312;2023-02-22T10:45:36;1.92;;;1.77;;
45059;SDS011;30799;49.060;9.312;2023-02-22T10:48:04;2.85;;;1.70;;
45059;SDS011;30799;49.060;9.312;2023-02-22T10:50:34;2.90;;;1.75;;
45059;SDS011;30799;49.060;9.312;2023-02-22T10:53:06;2.42;;;1.83;;
45059;SDS011;30799;49.060;9.312;2023-02-22T10:55:34;2.80;;;2.00;;
45059;SDS011;30799;49.060;9.312;2023-02-22T10:58:06;1.83;;;1.73;;
45059;SDS011;30799;49.060;9.312;2023-02-22T11:00:35;2.00;;;1.83;;
45059;SDS011;30799;49.060;9.312;2023-02-22T11:03:05;3.30;;;1.90;;
45059;SDS011;30799;49.060;9.312;2023-02-22T11:05:43;2.60;;;1.70;;
45059;SDS011;30799;49.060;9.312;2023-02-22T11:10:46;2.22;;;2.00;;
45059;SDS011;30799;49.060;9.312;2023-02-22T11:13:18;2.17;;;1.95;;
45059;SDS011;30799;49.060;9.312;2023-02-22T11:15:59;3.25;;;1.65;;
45059;SDS011;30799;49.060;9.312;2023-02-22T11:18:42;1.63;;;1.52;;
45059;SDS011;30799;49.060;9.312;2023-02-22T11:21:10;2.70;;;1.90;;
45059;SDS011;30799;49.060;9.312;2023-02-22T11:23:39;1.80;;;1.70;;
45059;SDS011;30799;49.060;9.312;2023-02-22T11:26:14;3.77;;;1.90;;
45059;SDS011;30799;49.060;9.312;2023-02-22T11:28:49;2.28;;;1.80;;
45059;SDS011;30799;49.060;9.312;2023-02-22T11:31:22;2.00;;;1.80;;
45059;SDS011;30799;49.060;9.312;2023-02-22T11:33:56;1.80;;;1.70;;
45059;SDS011;30799;49.060;9.312;2023-02-22T11:36:35;2.00;;;1.80;;
45059;SDS011;30799;49.060;9.312;2023-02-22T11:39:20;1.70;;;1.60;;
45059;SDS011;30799;49.060;9.312;2023-02-22T11:41:53;2.67;;;1.73;;
45059;SDS011;30799;49.060;9.312;2023-02-22T11:46:54;2.20;;;2.00;;
45059;SDS011;30799;49.060;9.312;2023-02-22T11:49:35;2.28;;;1.77;;
45059;SDS011;30799;49.060;9.312;2023-02-22T11:55:12;1.88;;;1.67;;
45059;SDS011;30799;49.060;9.312;2023-02-22T11:58:20;2.30;;;1.75;;
45059;SDS011;30799;49.060;9.312;2023-02-22T12:01:13;1.92;;;1.80;;
45059;SDS011;30799;49.060;9.312;2023-02-22T12:06:57;2.55;;;2.03;;
45059;SDS011;30799;49.060;9.312;2023-02-22T12:09:59;2.03;;;1.75;;
45059;SDS011;30799;49.060;9.312;2023-02-22T12:12:41;2.17;;;1.80;;
45059;SDS011;30799;49.060;9.312;2023-02-22T12:15:23;2.47;;;1.85;;
45059;SDS011;30799;49.060;9.312;2023-02-22T12:20:39;3.00;;;1.92;;
45059;SDS011;30799;49.060;9.312;2023-02-22T12:25:56;1.80;;;1.70;;
45059;SDS011;30799;49.060;9.312;2023-02-22T12:31:24;3.25;;;1.70;;
45059;SDS011;30799;49.060;9.312;2023-02-22T12:36:47;1.90;;;1.70;;
45059;SDS011;30799;49.060;9.312;2023-02-22T12:39:32;2.28;;;1.90;;
45059;SDS011;30799;49.060;9.312;2023-02-22T12:50:54;1.80;;;1.70;;
45059;SDS011;30799;49.060;9.312;2023-02-22T13:01:16;2.10;;;1.90;;
45059;SDS011;30799;49.060;9.312;2023-02-22T13:03:46;3.00;;;1.88;;
45059;SDS011;30799;49.060;9.312;2023-02-22T13:17:40;2.13;;;1.80;;
45059;SDS011;30799;49.060;9.312;2023-02-22T13:26:01;3.78;;;2.28;;
45059;SDS011;30799;49.060;9.312;2023-02-22T13:28:49;2.40;;;1.98;;
45059;SDS011;30799;49.060;9.312;2023-02-22T13:31:28;2.53;;;2.30;;
45059;SDS011;30799;49.060;9.312;2023-02-22T13:37:03;2.70;;;1.88;;
45059;SDS011;30799;49.060;9.312;2023-02-22T13:44:49;2.20;;;2.00;;
45059;SDS011;30799;49.060;9.312;2023-02-22T13:52:59;2.05;;;1.85;;
45059;SDS011;30799;49.060;9.312;2023-02-22T13:58:03;2.10;;;1.90;;
45059;SDS011;30799;49.060;9.312;2023-02-22T14:00:52;2.58;;;2.05;;
45059;SDS011;30799;49.060;9.312;2023-02-22T14:05:55;1.90;;;1.73;;
45059;SDS011;30799;49.060;9.312;2023-02-22T14:13:25;2.13;;;1.90;;
45059;SDS011;30799;49.060;9.312;2023-02-22T14:18:26;2.42;;;1.80;;
45059;SDS011;30799;49.060;9.312;2023-02-22T14:21:07;1.60;;;1.50;;
45059;SDS011;30799;49.060;9.312;2023-02-22T14:26:27;2.50;;;1.90;;
45059;SDS011;30799;49.060;9.312;2023-02-22T14:31:24;2.35;;;2.15;;
45059;SDS011;30799;49.060;9.312;2023-02-22T14:36:52;2.67;;;1.98;;
45059;SDS011;30799;49.060;9.312;2023-02-22T14:39:42;2.25;;;2.05;;
45059;SDS011;30799;49.060;9.312;2023-02-22T14:42:17;2.40;;;2.20;;
45059;SDS011;30799;49.060;9.312;2023-02-22T14:44:50;2.10;;;1.90;;
45059;SDS011;30799;49.060;9.312;2023-02-22T14:47:34;2.85;;;2.45;;
45059;SDS011;30799;49.060;9.312;2023-02-22T14:53:13;2.13;;;1.92;;
45059;SDS011;30799;49.060;9.312;2023-02-22T15:01:20;1.90;;;1.70;;
45059;SDS011;30799;49.060;9.312;2023-02-22T15:03:49;2.08;;;1.90;;
45059;SDS011;30799;49.060;9.312;2023-02-22T15:06:31;2.67;;;1.92;;
45059;SDS011;30799;49.060;9.312;2023-02-22T15:14:33;3.67;;;1.85;;
45059;SDS011;30799;49.060;9.312;2023-02-22T15:17:25;2.40;;;2.00;;
45059;SDS011;30799;49.060;9.312;2023-02-22T15:19:50;1.92;;;1.75;;
45059;SDS011;30799;49.060;9.312;2023-02-22T15:22:23;2.58;;;2.00;;
45059;SDS011;30799;49.060;9.312;2023-02-22T15:24:56;2.22;;;2.03;;
45059;SDS011;30799;49.060;9.312;2023-02-22T15:27:23;2.72;;;2.00;;
45059;SDS011;30799;49.060;9.312;2023-02-22T15:29:56;2.30;;;2.10;;
45059;SDS011;30799;49.060;9.312;2023-02-22T15:38:03;2.28;;;2.03;;
45059;SDS011;30799;49.060;9.312;2023-02-22T15:40:57;2.10;;;1.80;;
45059;SDS011;30799;49.060;9.312;2023-02-22T15:43:28;2.25;;;2.00;;
45059;SDS011;30799;49.060;9.312;2023-02-22T15:45:57;2.72;;;2.00;;
45059;SDS011;30799;49.060;9.312;2023-02-22T15:48:25;2.63;;;1.98;;
45059;SDS011;30799;49.060;9.312;2023-02-22T15:51:10;1.90;;;1.80;;
45059;SDS011;30799;49.060;9.312;2023-02-22T15:53:40;8.02;;;6.47;;
45059;SDS011;30799;49.060;9.312;2023-02-22T15:56:10;14.70;;;8.02;;
45059;SDS011;30799;49.060;9.312;2023-02-22T15:58:43;11.48;;;8.90;;
45059;SDS011;30799;49.060;9.312;2023-02-22T16:01:13;11.18;;;8.15;;
45059;SDS011;30799;49.060;9.312;2023-02-22T16:03:45;13.00;;;9.07;;
45059;SDS011;30799;49.060;9.312;2023-02-22T16:11:38;7.13;;;4.28;;
45059;SDS011;30799;49.060;9.312;2023-02-22T16:14:25;6.25;;;3.92;;
45059;SDS011;30799;49.060;9.312;2023-02-22T16:20:01;6.45;;;3.20;;
45059;SDS011;30799;49.060;9.312;2023-02-22T16:22:47;9.20;;;3.90;;
45059;SDS011;30799;49.060;9.312;2023-02-22T16:27:48;6.65;;;3.47;;
45059;SDS011;30799;49.060;9.312;2023-02-22T16:30:30;7.00;;;3.35;;
45059;SDS011;30799;49.060;9.312;2023-02-22T16:33:02;11.95;;;3.42;;
45059;SDS011;30799;49.060;9.312;2023-02-22T16:35:30;5.65;;;3.67;;
45059;SDS011;30799;49.060;9.312;2023-02-22T16:38:04;4.43;;;3.17;;
45059;SDS011;30799;49.060;9.312;2023-02-22T16:40:34;5.03;;;3.10;;
45059;SDS011;30799;49.060;9.312;2023-02-22T16:43:16;3.67;;;3.03;;
45059;SDS011;30799;49.060;9.312;2023-02-22T16:45:45;12.55;;;7.13;;
45059;SDS011;30799;49.060;9.312;2023-02-22T16:48:16;12.80;;;9.20;;
45059;SDS011;30799;49.060;9.312;2023-02-22T16:50:45;17.45;;;9.48;;
45059;SDS011;30799;49.060;9.312;2023-02-22T16:53:16;14.93;;;8.57;;
45059;SDS011;30799;49.060;9.312;2023-02-22T16:55:48;10.13;;;6.38;;
45059;SDS011;30799;49.060;9.312;2023-02-22T16:58:17;11.15;;;5.10;;
45059;SDS011;30799;49.060;9.312;2023-02-22T17:00:44;8.60;;;4.75;;
45059;SDS011;30799;49.060;9.312;2023-02-22T17:03:16;5.57;;;4.18;;
45059;SDS011;30799;49.060;9.312;2023-02-22T17:05:43;5.43;;;4.03;;
45059;SDS011;30799;49.060;9.312;2023-02-22T17:08:10;6.25;;;3.60;;
45059;SDS011;30799;49.060;9.312;2023-02-22T17:10:37;11.18;;;3.67;;
45059;SDS011;30799;49.060;9.312;2023-02-22T17:13:04;7.75;;;3.90;;
45059;SDS011;30799;49.060;9.312;2023-02-22T17:15:48;6.57;;;3.50;;
45059;SDS011;30799;49.060;9.312;2023-02-22T17:18:18;5.32;;;3.50;;
45059;SDS011;30799;49.060;9.312;2023-02-22T17:20:51;12.23;;;8.88;;
45059;SDS011;30799;49.060;9.312;2023-02-22T17:23:19;12.93;;;6.22;;
45059;SDS011;30799;49.060;9.312;2023-02-22T17:25:49;8.38;;;5.35;;
45059;SDS011;30799;49.060;9.312;2023-02-22T17:28:21;6.97;;;5.07;;
45059;SDS011;30799;49.060;9.312;2023-02-22T17:30:49;7.85;;;4.50;;
45059;SDS011;30799;49.060;9.312;2023-02-22T17:33:18;6.40;;;4.20;;
45059;SDS011;30799;49.060;9.312;2023-02-22T17:35:48;8.00;;;4.10;;
45059;SDS011;30799;49.060;9.312;2023-02-22T17:38:14;4.57;;;3.88;;
45059;SDS011;30799;49.060;9.312;2023-02-22T17:40:46;6.70;;;4.18;;
45059;SDS011;30799;49.060;9.312;2023-02-22T17:43:17;6.43;;;3.92;;
45059;SDS011;30799;49.060;9.312;2023-02-22T17:45:46;8.60;;;3.95;;
45059;SDS011;30799;49.060;9.312;2023-02-22T17:48:14;6.20;;;3.83;;
45059;SDS011;30799;49.060;9.312;2023-02-22T17:50:43;11.85;;;4.00;;
45059;SDS011;30799;49.060;9.312;2023-02-22T17:53:11;8.77;;;3.42;;
45059;SDS011;30799;49.060;9.312;2023-02-22T17:55:39;6.93;;;3.80;;
45059;SDS011;30799;49.060;9.312;2023-02-22T17:58:07;8.10;;;3.72;;
45059;SDS011;30799;49.060;9.312;2023-02-22T18:00:45;7.03;;;3.17;;
45059;SDS011;30799;49.060;9.312;2023-02-22T18:03:14;7.43;;;3.65;;
45059;SDS011;30799;49.060;9.312;2023-02-22T18:05:47;5.38;;;3.35;;
45059;SDS011;30799;49.060;9.312;2023-02-22T18:08:15;8.52;;;3.40;;
45059;SDS011;30799;49.060;9.312;2023-02-22T18:10:42;3.58;;;2.80;;
45059;SDS011;30799;49.060;9.312;2023-02-22T18:13:13;8.00;;;3.30;;
45059;SDS011;30799;49.060;9.312;2023-02-22T18:15:43;6.50;;;3.33;;
45059;SDS011;30799;49.060;9.312;2023-02-22T18:18:11;6.30;;;3.78;;
45059;SDS011;30799;49.060;9.312;2023-02-22T18:20:41;6.15;;;3.20;;
45059;SDS011;30799;49.060;9.312;2023-02-22T18:23:11;16.67;;;3.57;;
45059;SDS011;30799;49.060;9.312;2023-02-22T18:25:48;4.95;;;3.17;;
45059;SDS011;30799;49.060;9.312;2023-02-22T18:28:35;7.35;;;3.45;;
45059;SDS011;30799;49.060;9.312;2023-02-22T18:31:05;6.65;;;2.90;;
45059;SDS011;30799;49.060;9.312;2023-02-22T18:33:33;5.57;;;3.58;;
45059;SDS011;30799;49.060;9.312;2023-02-22T18:36:00;6.53;;;3.42;;
45059;SDS011;30799;49.060;9.312;2023-02-22T18:38:26;8.25;;;2.97;;
45059;SDS011;30799;49.060;9.312;2023-02-22T18:40:57;6.75;;;3.20;;
45059;SDS011;30799;49.060;9.312;2023-02-22T18:43:26;6.88;;;3.20;;
45059;SDS011;30799;49.060;9.312;2023-02-22T18:45:53;5.88;;;2.95;;
45059;SDS011;30799;49.060;9.312;2023-02-22T18:48:29;7.40;;;3.50;;
45059;SDS011;30799;49.060;9.312;2023-02-22T18:50:58;4.60;;;3.30;;
45059;SDS011;30799;49.060;9.312;2023-02-22T18:53:27;6.28;;;3.15;;
45059;SDS011;30799;49.060;9.312;2023-02-22T18:55:54;7.25;;;3.20;;
45059;SDS011;30799;49.060;9.312;2023-02-22T18:58:21;4.05;;;3.10;;
45059;SDS011;30799;49.060;9.312;2023-02-22T19:00:48;3.50;;;3.17;;
45059;SDS011;30799;49.060;9.312;2023-02-22T19:03:14;3.95;;;3.00;;
45059;SDS011;30799;49.060;9.312;2023-02-22T19:05:41;4.38;;;3.20;;
45059;SDS011;30799;49.060;9.312;2023-02-22T19:08:07;5.80;;;3.83;;
45059;SDS011;30799;49.060;9.312;2023-02-22T19:10:36;5.00;;;2.80;;
45059;SDS011;30799;49.060;9.312;2023-02-22T19:13:03;3.70;;;3.10;;
45059;SDS011;30799;49.060;9.312;2023-02-22T19:15:36;8.13;;;3.33;;
45059;SDS011;30799;49.060;9.312;2023-02-22T19:18:03;4.63;;;3.00;;
45059;SDS011;30799;49.060;9.312;2023-02-22T19:20:30;6.03;;;3.33;;
45059;SDS011;30799;49.060;9.312;2023-02-22T19:22:58;7.65;;;3.45;;
45059;SDS011;30799;49.060;9.312;2023-02-22T19:25:26;7.10;;;3.05;;
45059;SDS011;30799;49.060;9.312;2023-02-22T19:27:54;7.30;;;3.30;;
45059;SDS011;30799;49.060;9.312;2023-02-22T19:30:24;4.18;;;3.25;;
45059;SDS011;30799;49.060;9.312;2023-02-22T19:32:51;6.78;;;3.15;;
45059;SDS011;30799;49.060;9.312;2023-02-22T19:35:17;8.65;;;2.90;;
45059;SDS011;30799;49.060;9.312;2023-02-22T19:37:54;4.18;;;3.08;;
45059;SDS011;30799;49.060;9.312;2023-02-22T19:40:21;7.60;;;3.13;;
45059;SDS011;30799;49.060;9.312;2023-02-22T19:42:51;5.72;;;3.22;;
45059;SDS011;30799;49.060;9.312;2023-02-22T19:45:20;3.67;;;3.10;;
45059;SDS011;30799;49.060;9.312;2023-02-22T19:47:51;5.93;;;3.30;;
45059;SDS011;30799;49.060;9.312;2023-02-22T19:52:46;5.70;;;3.47;;
45059;SDS011;30799;49.060;9.312;2023-02-22T19:55:13;5.90;;;2.90;;
45059;SDS011;30799;49.060;9.312;2023-02-22T19:57:43;5.45;;;3.72;;
45059;SDS011;30799;49.060;9.312;2023-02-22T20:00:15;6.05;;;3.30;;
45059;SDS011;30799;49.060;9.312;2023-02-22T20:02:55;5.45;;;3.70;;
45059;SDS011;30799;49.060;9.312;2023-02-22T20:05:37;6.93;;;3.35;;
45059;SDS011;30799;49.060;9.312;2023-02-22T20:08:05;6.35;;;3.22;;
45059;SDS011;30799;49.060;9.312;2023-02-22T20:10:32;5.00;;;3.17;;
45059;SDS011;30799;49.060;9.312;2023-02-22T20:13:02;9.93;;;3.58;;
45059;SDS011;30799;49.060;9.312;2023-02-22T20:15:28;10.80;;;3.97;;
45059;SDS011;30799;49.060;9.312;2023-02-22T20:17:55;6.50;;;3.83;;
45059;SDS011;30799;49.060;9.312;2023-02-22T20:20:24;5.88;;;4.18;;
45059;SDS011;30799;49.060;9.312;2023-02-22T20:22:54;5.95;;;4.35;;
45059;SDS011;30799;49.060;9.312;2023-02-22T20:25:20;8.32;;;4.22;;
45059;SDS011;30799;49.060;9.312;2023-02-22T20:27:47;7.63;;;4.10;;
45059;SDS011;30799;49.060;9.312;2023-02-22T20:30:14;4.93;;;3.67;;
45059;SDS011;30799;49.060;9.312;2023-02-22T20:32:43;6.05;;;4.00;;
45059;SDS011;30799;49.060;9.312;2023-02-22T20:35:10;6.90;;;3.47;;
45059;SDS011;30799;49.060;9.312;2023-02-22T20:37:37;7.63;;;3.80;;
45059;SDS011;30799;49.060;9.312;2023-02-22T20:40:05;6.45;;;3.83;;
45059;SDS011;30799;49.060;9.312;2023-02-22T20:42:32;7.82;;;4.10;;
45059;SDS011;30799;49.060;9.312;2023-02-22T20:44:59;9.43;;;3.22;;
45059;SDS011;30799;49.060;9.312;2023-02-22T20:47:29;8.48;;;3.90;;
45059;SDS011;30799;49.060;9.312;2023-02-22T20:49:56;7.97;;;3.70;;
45059;SDS011;30799;49.060;9.312;2023-02-22T20:52:23;7.80;;;4.18;;
45059;SDS011;30799;49.060;9.312;2023-02-22T20:54:49;12.25;;;4.10;;
45059;SDS011;30799;49.060;9.312;2023-02-22T20:57:16;6.45;;;3.45;;
45059;SDS011;30799;49.060;9.312;2023-02-22T20:59:43;6.95;;;3.95;;
45059;SDS011;30799;49.060;9.312;2023-02-22T21:02:10;7.07;;;3.33;;
45059;SDS011;30799;49.060;9.312;2023-02-22T21:04:37;7.82;;;3.35;;
45059;SDS011;30799;49.060;9.312;2023-02-22T21:07:05;8.48;;;3.80;;
45059;SDS011;30799;49.060;9.312;2023-02-22T21:09:31;10.27;;;3.90;;
45059;SDS011;30799;49.060;9.312;2023-02-22T21:11:59;6.30;;;3.40;;
45059;SDS011;30799;49.060;9.312;2023-02-22T21:14:25;4.57;;;3.20;;
45059;SDS011;30799;49.060;9.312;2023-02-22T21:16:53;4.70;;;3.28;;
45059;SDS011;30799;49.060;9.312;2023-02-22T21:19:20;6.85;;;3.38;;
45059;SDS011;30799;49.060;9.312;2023-02-22T21:21:53;5.22;;;3.17;;
45059;SDS011;30799;49.060;9.312;2023-02-22T21:24:22;6.45;;;3.20;;
45059;SDS011;30799;49.060;9.312;2023-02-22T21:26:50;7.18;;;3.20;;
45059;SDS011;30799;49.060;9.312;2023-02-22T21:29:17;7.88;;;3.55;;
45059;SDS011;30799;49.060;9.312;2023-02-22T21:31:44;8.38;;;3.42;;
45059;SDS011;30799;49.060;9.312;2023-02-22T21:34:12;7.35;;;3.17;;
45059;SDS011;30799;49.060;9.312;2023-02-22T21:36:45;10.32;;;3.50;;
45059;SDS011;30799;49.060;9.312;2023-02-22T21:39:12;6.57;;;3.47;;
45059;SDS011;30799;49.060;9.312;2023-02-22T21:41:49;6.73;;;3.50;;
45059;SDS011;30799;49.060;9.312;2023-02-22T21:44:17;5.25;;;3.30;;
45059;SDS011;30799;49.060;9.312;2023-02-22T21:46:44;5.90;;;3.80;;
45059;SDS011;30799;49.060;9.312;2023-02-22T21:49:13;6.90;;;3.67;;
45059;SDS011;30799;49.060;9.312;2023-02-22T21:51:40;6.97;;;3.17;;
45059;SDS011;30799;49.060;9.312;2023-02-22T21:54:08;7.28;;;3.28;;
45059;SDS011;30799;49.060;9.312;2023-02-22T21:56:38;5.05;;;3.50;;
45059;SDS011;30799;49.060;9.312;2023-02-22T21:59:07;4.88;;;3.20;;
45059;SDS011;30799;49.060;9.312;2023-02-22T22:01:41;4.13;;;3.08;;
45059;SDS011;30799;49.060;9.312;2023-02-22T22:04:13;6.53;;;3.30;;
45059;SDS011;30799;49.060;9.312;2023-02-22T22:06:44;6.18;;;3.53;;
45059;SDS011;30799;49.060;9.312;2023-02-22T22:09:13;7.20;;;3.15;;
45059;SDS011;30799;49.060;9.312;2023-02-22T22:11:47;5.75;;;3.55;;
45059;SDS011;30799;49.060;9.312;2023-02-22T22:14:19;5.30;;;2.97;;
45059;SDS011;30799;49.060;9.312;2023-02-22T22:16:48;5.78;;;3.20;;
45059;SDS011;30799;49.060;9.312;2023-02-22T22:19:17;4.22;;;3.15;;
45059;SDS011;30799;49.060;9.312;2023-02-22T22:21:44;4.70;;;3.20;;
45059;SDS011;30799;49.060;9.312;2023-02-22T22:24:12;5.28;;;3.60;;
45059;SDS011;30799;49.060;9.312;2023-02-22T22:26:38;5.65;;;2.75;;
45059;SDS011;30799;49.060;9.312;2023-02-22T22:29:05;4.13;;;3.00;;
45059;SDS011;30799;49.060;9.312;2023-02-22T22:31:35;5.40;;;4.05;;
45059;SDS011;30799;49.060;9.312;2023-02-22T22:34:03;4.05;;;2.72;;
45059;SDS011;30799;49.060;9.312;2023-02-22T22:36:30;5.30;;;3.17;;
45059;SDS011;30799;49.060;9.312;2023-02-22T22:38:59;5.15;;;2.90;;
45059;SDS011;30799;49.060;9.312;2023-02-22T22:41:26;3.65;;;3.03;;
45059;SDS011;30799;49.060;9.312;2023-02-22T22:43:55;3.20;;;2.80;;
45059;SDS011;30799;49.060;9.312;2023-02-22T22:46:22;3.25;;;2.75;;
45059;SDS011;30799;49.060;9.312;2023-02-22T22:48:49;4.43;;;3.00;;
45059;SDS011;30799;49.060;9.312;2023-02-22T22:51:19;3.60;;;3.20;;
45059;SDS011;30799;49.060;9.312;2023-02-22T22:53:47;3.75;;;2.75;;
45059;SDS011;30799;49.060;9.312;2023-02-22T22:56:19;3.47;;;2.72;;
45059;SDS011;30799;49.060;9.312;2023-02-22T22:58:51;6.50;;;3.15;;
45059;SDS011;30799;49.060;9.312;2023-02-22T23:01:20;3.85;;;2.92;;
45059;SDS011;30799;49.060;9.312;2023-02-22T23:06:24;4.80;;;2.40;;
45059;SDS011;30799;49.060;9.312;2023-02-22T23:11:27;3.53;;;2.90;;
45059;SDS011;30799;49.060;9.312;2023-02-22T23:14:00;2.78;;;2.55;;
45059;SDS011;30799;49.060;9.312;2023-02-22T23:16:29;5.90;;;3.30;;
45059;SDS011;30799;49.060;9.312;2023-02-22T23:18:57;3.63;;;2.58;;
45059;SDS011;30799;49.060;9.312;2023-02-22T23:21:24;3.97;;;2.75;;
45059;SDS011;30799;49.060;9.312;2023-02-22T23:23:54;3.67;;;3.03;;
45059;SDS011;30799;49.060;9.312;2023-02-22T23:26:25;4.45;;;2.70;;
45059;SDS011;30799;49.060;9.312;2023-02-22T23:28:55;3.90;;;2.63;;
45059;SDS011;30799;49.060;9.312;2023-02-22T23:31:24;3.13;;;2.83;;
45059;SDS011;30799;49.060;9.312;2023-02-22T23:33:54;3.40;;;2.58;;
45059;SDS011;30799;49.060;9.312;2023-02-22T23:36:24;3.00;;;2.70;;
45059;SDS011;30799;49.060;9.312;2023-02-22T23:38:51;4.50;;;2.47;;
45059;SDS011;30799;49.060;9.312;2023-02-22T23:41:19;2.70;;;2.35;;
45059;SDS011;30799;49.060;9.312;2023-02-22T23:43:46;3.10;;;2.60;;
45059;SDS011;30799;49.060;9.312;2023-02-22T23:46:14;2.58;;;2.38;;
45059;SDS011;30799;49.060;9.312;2023-02-22T23:48:50;2.58;;;2.38;;
45059;SDS011;30799;49.060;9.312;2023-02-22T23:51:20;2.60;;;2.40;;
45059;SDS011;30799;49.060;9.312;2023-02-22T23:53:52;4.80;;;2.75;;
45059;SDS011;30799;49.060;9.312;2023-02-22T23:56:23;3.67;;;2.63;;
45059;SDS011;30799;49.060;9.312;2023-02-22T23:58:51;2.95;;;2.60;;
